LPA727 UGTB-USSS
Flight info
| Callsign | LPA727 |
|---|---|
| Flight time | 2h 38m |
| Altitude | 37000 |
| Route | K0791F370 KUFAN1D KUFAN A921 IPLED N37 AKT N996 KODUM Z210 AKB L992 NEBIS NEBIS6S |
| Aircraft | A320/M-SDE3FGHIRWY/LB1 |
Departure
| Time | 2026-04-25 22:43 |
|---|---|
| Airport | Tbilisi International Airport (UGTB) |
Arrival
| Time | 2026-04-26 01:22 |
|---|---|
| Airport | Koltsovo Airport (USSS) |
| Time | Latitude | Longitude | Altitude | Speed | Heading |
|---|---|---|---|---|---|
| 2026-04-25 22:25 | 41.66891 | 44.96010 | 1526 ft | 0 kts | 223° |
| 2026-04-25 22:32 | 41.66896 | 44.96016 | 1526 ft | 2 kts | 220° |
| 2026-04-25 22:32 | 41.66908 | 44.96031 | 1521 ft | 2 kts | 222° |
| 2026-04-25 22:33 | 41.66921 | 44.96046 | 1526 ft | 2 kts | 222° |
| 2026-04-25 22:33 | 41.66933 | 44.96061 | 1518 ft | 2 kts | 220° |
| 2026-04-25 22:33 | 41.66946 | 44.96074 | 1520 ft | 2 kts | 211° |
| 2026-04-25 22:33 | 41.66961 | 44.96082 | 1519 ft | 2 kts | 140° |
| 2026-04-25 22:34 | 41.66966 | 44.96076 | 1520 ft | 0 kts | 133° |
| 2026-04-25 22:35 | 41.66960 | 44.96086 | 1518 ft | 7 kts | 133° |
| 2026-04-25 22:36 | 41.66922 | 44.96139 | 1524 ft | 7 kts | 133° |
| 2026-04-25 22:36 | 41.66893 | 44.96189 | 1524 ft | 10 kts | 128° |
| 2026-04-25 22:36 | 41.66838 | 44.96268 | 1520 ft | 11 kts | 133° |
| 2026-04-25 22:36 | 41.66788 | 44.96339 | 1526 ft | 10 kts | 134° |
| 2026-04-25 22:37 | 41.66732 | 44.96413 | 1525 ft | 11 kts | 142° |
| 2026-04-25 22:37 | 41.66671 | 44.96424 | 1526 ft | 8 kts | 202° |
| 2026-04-25 22:37 | 41.66619 | 44.96408 | 1524 ft | 10 kts | 193° |
| 2026-04-25 22:37 | 41.66525 | 44.96380 | 1524 ft | 15 kts | 193° |
| 2026-04-25 22:38 | 41.66426 | 44.96348 | 1521 ft | 18 kts | 194° |
| 2026-04-25 22:38 | 41.66289 | 44.96303 | 1521 ft | 20 kts | 191° |
| 2026-04-25 22:38 | 41.66163 | 44.96327 | 1519 ft | 17 kts | 154° |
| 2026-04-25 22:38 | 41.66075 | 44.96423 | 1526 ft | 17 kts | 136° |
| 2026-04-25 22:39 | 41.65984 | 44.96540 | 1524 ft | 18 kts | 137° |
| 2026-04-25 22:39 | 41.65911 | 44.96603 | 1526 ft | 10 kts | 178° |
| 2026-04-25 22:39 | 41.65865 | 44.96580 | 1523 ft | 0 kts | 218° |
| 2026-04-25 22:40 | 41.65845 | 44.96544 | 1522 ft | 9 kts | 246° |
| 2026-04-25 22:40 | 41.65845 | 44.96468 | 1525 ft | 7 kts | 280° |
| 2026-04-25 22:40 | 41.65865 | 44.96431 | 1525 ft | 2 kts | 313° |
| 2026-04-25 22:40 | 41.65869 | 44.96425 | 1523 ft | 0 kts | 313° |
| 2026-04-25 22:42 | 41.65888 | 44.96400 | 1525 ft | 21 kts | 317° |
| 2026-04-25 22:42 | 41.66206 | 44.96001 | 1518 ft | 102 kts | 316° |
| 2026-04-25 22:42 | 41.66881 | 44.95152 | 1529 ft | 164 kts | 316° |
| 2026-04-25 22:43 | 41.67752 | 44.94033 | 1933 ft | 172 kts | 319° |
| 2026-04-25 22:43 | 41.68610 | 44.92971 | 2407 ft | 170 kts | 318° |
| 2026-04-25 22:43 | 41.69475 | 44.91910 | 2997 ft | 167 kts | 317° |
| 2026-04-25 22:43 | 41.70345 | 44.90838 | 3414 ft | 177 kts | 316° |
| 2026-04-25 22:44 | 41.71283 | 44.89679 | 3586 ft | 196 kts | 316° |
| 2026-04-25 22:44 | 41.72347 | 44.88364 | 3782 ft | 220 kts | 316° |
| 2026-04-25 22:44 | 41.73533 | 44.86892 | 4129 ft | 242 kts | 315° |
| 2026-04-25 22:44 | 41.74792 | 44.85329 | 4834 ft | 249 kts | 315° |
| 2026-04-25 22:45 | 41.76068 | 44.83743 | 5692 ft | 250 kts | 315° |
| 2026-04-25 22:45 | 41.77353 | 44.82151 | 6550 ft | 253 kts | 315° |
| 2026-04-25 22:45 | 41.78826 | 44.80839 | 7344 ft | 259 kts | 333° |
| 2026-04-25 22:45 | 41.80612 | 44.80287 | 8118 ft | 271 kts | 352° |
| 2026-04-25 22:46 | 41.82493 | 44.80634 | 8872 ft | 285 kts | 13° |
| 2026-04-25 22:46 | 41.84277 | 44.82014 | 9612 ft | 303 kts | 37° |
| 2026-04-25 22:46 | 41.85538 | 44.84308 | 10272 ft | 319 kts | 64° |
| 2026-04-25 22:46 | 41.86066 | 44.87262 | 10714 ft | 336 kts | 82° |
| 2026-04-25 22:47 | 41.86325 | 44.90488 | 10866 ft | 360 kts | 84° |
| 2026-04-25 22:47 | 41.86566 | 44.93940 | 11013 ft | 383 kts | 84° |
| 2026-04-25 22:47 | 41.86808 | 44.97583 | 11311 ft | 398 kts | 84° |
| 2026-04-25 22:47 | 41.87055 | 45.01311 | 11880 ft | 404 kts | 84° |
| 2026-04-25 22:48 | 41.87224 | 45.03817 | 12279 ft | 408 kts | 85° |
| 2026-04-25 22:48 | 41.87487 | 45.07621 | 12887 ft | 412 kts | 85° |
| 2026-04-25 22:48 | 41.87760 | 45.11480 | 13467 ft | 417 kts | 85° |
| 2026-04-25 22:48 | 41.88036 | 45.15368 | 14047 ft | 422 kts | 85° |
| 2026-04-25 22:49 | 41.88315 | 45.19302 | 14576 ft | 426 kts | 86° |
| 2026-04-25 22:49 | 41.88596 | 45.23274 | 15103 ft | 430 kts | 86° |
| 2026-04-25 22:49 | 41.88879 | 45.27286 | 15633 ft | 434 kts | 86° |
| 2026-04-25 22:49 | 41.89164 | 45.31338 | 16136 ft | 438 kts | 87° |
| 2026-04-25 22:50 | 41.89451 | 45.35431 | 16632 ft | 443 kts | 87° |
| 2026-04-25 22:50 | 41.89738 | 45.39563 | 17134 ft | 447 kts | 87° |
| 2026-04-25 22:50 | 41.90022 | 45.43736 | 17604 ft | 452 kts | 88° |
| 2026-04-25 22:50 | 41.90307 | 45.47959 | 18082 ft | 456 kts | 88° |
| 2026-04-25 22:51 | 41.90593 | 45.52217 | 18561 ft | 460 kts | 88° |
| 2026-04-25 22:51 | 41.90884 | 45.56507 | 18993 ft | 464 kts | 88° |
| 2026-04-25 22:51 | 41.91177 | 45.60836 | 19418 ft | 467 kts | 88° |
| 2026-04-25 22:51 | 41.91472 | 45.65198 | 19855 ft | 470 kts | 88° |
| 2026-04-25 22:52 | 41.91767 | 45.69583 | 20294 ft | 473 kts | 88° |
| 2026-04-25 22:52 | 41.92059 | 45.74001 | 20731 ft | 476 kts | 89° |
| 2026-04-25 22:52 | 41.92345 | 45.78439 | 21180 ft | 478 kts | 89° |
| 2026-04-25 22:52 | 41.92629 | 45.82896 | 21619 ft | 480 kts | 89° |
| 2026-04-25 22:53 | 41.92915 | 45.87377 | 22064 ft | 482 kts | 89° |
| 2026-04-25 22:53 | 41.93206 | 45.91870 | 22500 ft | 484 kts | 89° |
| 2026-04-25 22:53 | 41.93497 | 45.96372 | 22936 ft | 485 kts | 89° |
| 2026-04-25 22:53 | 41.93787 | 46.00900 | 23345 ft | 487 kts | 89° |
| 2026-04-25 22:54 | 41.94071 | 46.05383 | 23756 ft | 489 kts | 89° |
| 2026-04-25 22:54 | 41.94355 | 46.09947 | 24046 ft | 491 kts | 89° |
| 2026-04-25 22:54 | 41.94637 | 46.14528 | 24339 ft | 494 kts | 89° |
| 2026-04-25 22:54 | 41.94919 | 46.19146 | 24630 ft | 497 kts | 89° |
| 2026-04-25 22:55 | 41.95341 | 46.23785 | 24875 ft | 504 kts | 82° |
| 2026-04-25 22:55 | 41.96237 | 46.28362 | 25139 ft | 510 kts | 72° |
| 2026-04-25 22:55 | 41.97626 | 46.32761 | 25360 ft | 515 kts | 63° |
| 2026-04-25 22:55 | 41.99461 | 46.36915 | 25546 ft | 517 kts | 57° |
| 2026-04-25 22:56 | 42.01408 | 46.41009 | 25803 ft | 521 kts | 57° |
| 2026-04-25 22:56 | 42.03355 | 46.45125 | 26059 ft | 523 kts | 57° |
| 2026-04-25 22:56 | 42.05308 | 46.49279 | 26327 ft | 527 kts | 57° |
| 2026-04-25 22:56 | 42.07269 | 46.53466 | 26537 ft | 531 kts | 57° |
| 2026-04-25 22:57 | 42.09238 | 46.57677 | 26720 ft | 532 kts | 57° |
| 2026-04-25 22:57 | 42.11217 | 46.61906 | 26958 ft | 534 kts | 56° |
| 2026-04-25 22:57 | 42.13202 | 46.66143 | 27159 ft | 538 kts | 56° |
| 2026-04-25 22:57 | 42.15206 | 46.70423 | 27377 ft | 540 kts | 56° |
| 2026-04-25 22:58 | 42.17213 | 46.74711 | 27558 ft | 542 kts | 56° |
| 2026-04-25 22:58 | 42.19197 | 46.78966 | 27762 ft | 544 kts | 57° |
| 2026-04-25 22:58 | 42.21208 | 46.83293 | 27919 ft | 546 kts | 56° |
| 2026-04-25 22:58 | 42.23747 | 46.88766 | 28203 ft | 548 kts | 56° |
| 2026-04-25 22:59 | 42.25773 | 46.93135 | 28380 ft | 549 kts | 56° |
| 2026-04-25 22:59 | 42.27799 | 46.97502 | 28631 ft | 549 kts | 56° |
| 2026-04-25 22:59 | 42.29142 | 47.00400 | 28769 ft | 549 kts | 56° |
| 2026-04-25 22:59 | 42.31848 | 47.06264 | 29145 ft | 550 kts | 56° |
| 2026-04-25 23:00 | 42.33864 | 47.10640 | 29415 ft | 550 kts | 56° |
| 2026-04-25 23:00 | 42.35207 | 47.13556 | 29541 ft | 551 kts | 56° |
| 2026-04-25 23:00 | 42.37231 | 47.17954 | 29836 ft | 551 kts | 56° |
| 2026-04-25 23:00 | 42.39257 | 47.22364 | 30093 ft | 552 kts | 56° |
| 2026-04-25 23:01 | 42.41282 | 47.26777 | 30326 ft | 553 kts | 56° |
| 2026-04-25 23:01 | 42.43309 | 47.31198 | 30535 ft | 553 kts | 55° |
| 2026-04-25 23:01 | 42.45337 | 47.35626 | 30762 ft | 553 kts | 56° |
| 2026-04-25 23:01 | 42.47362 | 47.40055 | 31009 ft | 552 kts | 56° |
| 2026-04-25 23:02 | 42.49380 | 47.44479 | 31257 ft | 552 kts | 56° |
| 2026-04-25 23:02 | 42.51396 | 47.48903 | 31498 ft | 552 kts | 56° |
| 2026-04-25 23:02 | 42.53413 | 47.53326 | 31720 ft | 551 kts | 56° |
| 2026-04-25 23:02 | 42.55426 | 47.57749 | 31947 ft | 551 kts | 56° |
| 2026-04-25 23:03 | 42.57432 | 47.62173 | 32171 ft | 550 kts | 56° |
| 2026-04-25 23:03 | 42.59430 | 47.66599 | 32388 ft | 551 kts | 56° |
| 2026-04-25 23:03 | 42.61430 | 47.71033 | 32616 ft | 550 kts | 56° |
| 2026-04-25 23:03 | 42.63425 | 47.75463 | 32846 ft | 550 kts | 56° |
| 2026-04-25 23:04 | 42.65419 | 47.79893 | 33072 ft | 550 kts | 56° |
| 2026-04-25 23:04 | 42.67413 | 47.84324 | 33299 ft | 549 kts | 56° |
| 2026-04-25 23:04 | 42.69407 | 47.88759 | 33518 ft | 549 kts | 56° |
| 2026-04-25 23:04 | 42.71366 | 47.93127 | 33741 ft | 549 kts | 56° |
| 2026-04-25 23:05 | 42.73349 | 47.97561 | 33976 ft | 549 kts | 56° |
| 2026-04-25 23:05 | 42.75314 | 48.01975 | 34533 ft | 537 kts | 56° |
| 2026-04-25 23:05 | 42.77224 | 48.06280 | 34988 ft | 525 kts | 56° |
| 2026-04-25 23:05 | 42.79097 | 48.10500 | 35171 ft | 518 kts | 57° |
| 2026-04-25 23:06 | 42.82805 | 48.18851 | 35237 ft | 513 kts | 57° |
| 2026-04-25 23:06 | 42.86482 | 48.27156 | 35236 ft | 511 kts | 57° |
| 2026-04-25 23:07 | 42.90155 | 48.35465 | 35243 ft | 515 kts | 57° |
| 2026-04-25 23:07 | 42.93887 | 48.43921 | 35238 ft | 525 kts | 57° |
| 2026-04-25 23:08 | 42.97675 | 48.52541 | 35247 ft | 535 kts | 57° |
| 2026-04-25 23:08 | 43.01522 | 48.61335 | 35244 ft | 541 kts | 57° |
| 2026-04-25 23:09 | 43.05352 | 48.70123 | 35248 ft | 542 kts | 57° |
| 2026-04-25 23:09 | 43.09198 | 48.78977 | 35248 ft | 542 kts | 57° |
| 2026-04-25 23:10 | 43.13073 | 48.87912 | 35251 ft | 542 kts | 57° |
| 2026-04-25 23:10 | 43.16888 | 48.96730 | 35245 ft | 541 kts | 57° |
| 2026-04-25 23:11 | 43.20719 | 49.05606 | 35253 ft | 541 kts | 57° |
| 2026-04-25 23:11 | 43.24538 | 49.14496 | 35257 ft | 541 kts | 57° |
| 2026-04-25 23:12 | 43.28339 | 49.23396 | 35260 ft | 540 kts | 58° |
| 2026-04-25 23:12 | 43.32132 | 49.32287 | 35255 ft | 540 kts | 57° |
| 2026-04-25 23:13 | 43.35934 | 49.41190 | 35252 ft | 540 kts | 58° |
| 2026-04-25 23:13 | 43.39668 | 49.50137 | 35251 ft | 540 kts | 63° |
| 2026-04-25 23:14 | 43.42677 | 49.59599 | 35249 ft | 540 kts | 66° |
| 2026-04-25 23:14 | 43.45630 | 49.69088 | 35261 ft | 539 kts | 66° |
| 2026-04-25 23:15 | 43.48581 | 49.78583 | 35260 ft | 539 kts | 66° |
| 2026-04-25 23:15 | 43.51522 | 49.88072 | 35254 ft | 539 kts | 66° |
| 2026-04-25 23:16 | 43.54449 | 49.97570 | 35250 ft | 538 kts | 66° |
| 2026-04-25 23:16 | 43.57367 | 50.07078 | 35246 ft | 538 kts | 66° |
| 2026-04-25 23:17 | 43.60269 | 50.16575 | 35252 ft | 537 kts | 66° |
| 2026-04-25 23:17 | 43.63173 | 50.26087 | 35252 ft | 537 kts | 66° |
| 2026-04-25 23:18 | 43.66045 | 50.35527 | 35252 ft | 536 kts | 66° |
| 2026-04-25 23:18 | 43.68919 | 50.45040 | 35036 ft | 535 kts | 65° |
| 2026-04-25 23:19 | 43.70325 | 50.49720 | 35208 ft | 518 kts | 66° |
| 2026-04-25 23:19 | 43.71695 | 50.54288 | 35239 ft | 512 kts | 66° |
| 2026-04-25 23:19 | 43.74416 | 50.63338 | 35295 ft | 509 kts | 66° |
| 2026-04-25 23:20 | 43.75770 | 50.67853 | 35479 ft | 508 kts | 66° |
| 2026-04-25 23:20 | 43.77119 | 50.72363 | 35660 ft | 507 kts | 66° |
| 2026-04-25 23:20 | 43.78470 | 50.76881 | 35815 ft | 507 kts | 66° |
| 2026-04-25 23:20 | 43.79817 | 50.81396 | 35959 ft | 507 kts | 66° |
| 2026-04-25 23:21 | 43.81158 | 50.85903 | 36106 ft | 507 kts | 66° |
| 2026-04-25 23:21 | 43.82499 | 50.90420 | 36234 ft | 507 kts | 66° |
| 2026-04-25 23:21 | 43.85271 | 50.99392 | 36245 ft | 505 kts | 59° |
| 2026-04-25 23:22 | 43.89355 | 51.07206 | 36247 ft | 497 kts | 41° |
| 2026-04-25 23:23 | 43.97577 | 51.15486 | 35976 ft | 487 kts | 27° |
| 2026-04-25 23:23 | 44.00440 | 51.17996 | 35434 ft | 486 kts | 27° |
| 2026-04-25 23:23 | 44.03296 | 51.20510 | 35224 ft | 487 kts | 27° |
| 2026-04-25 23:24 | 44.09036 | 51.25577 | 35244 ft | 489 kts | 27° |
| 2026-04-25 23:24 | 44.14785 | 51.30657 | 35243 ft | 490 kts | 27° |
| 2026-04-25 23:25 | 44.20540 | 51.35738 | 35243 ft | 490 kts | 27° |
| 2026-04-25 23:25 | 44.26295 | 51.40833 | 35243 ft | 490 kts | 27° |
| 2026-04-25 23:26 | 44.32041 | 51.45947 | 35250 ft | 490 kts | 27° |
| 2026-04-25 23:26 | 44.37784 | 51.51065 | 35257 ft | 490 kts | 27° |
| 2026-04-25 23:27 | 44.43538 | 51.56201 | 35263 ft | 490 kts | 27° |
| 2026-04-25 23:27 | 44.49279 | 51.61342 | 35264 ft | 490 kts | 27° |
| 2026-04-25 23:28 | 44.54978 | 51.66467 | 35264 ft | 490 kts | 27° |
| 2026-04-25 23:28 | 44.60706 | 51.71630 | 35262 ft | 489 kts | 27° |
| 2026-04-25 23:29 | 44.66438 | 51.76795 | 35260 ft | 489 kts | 27° |
| 2026-04-25 23:29 | 44.72162 | 51.81953 | 35258 ft | 489 kts | 27° |
| 2026-04-25 23:30 | 44.77883 | 51.87136 | 35254 ft | 488 kts | 27° |
| 2026-04-25 23:30 | 44.83594 | 51.92306 | 35256 ft | 487 kts | 26° |
| 2026-04-25 23:31 | 44.89364 | 51.97293 | 35252 ft | 486 kts | 25° |
| 2026-04-25 23:31 | 44.95164 | 52.02186 | 35251 ft | 485 kts | 25° |
| 2026-04-25 23:32 | 45.00934 | 52.07114 | 35248 ft | 485 kts | 25° |
| 2026-04-25 23:32 | 45.06693 | 52.12094 | 35252 ft | 485 kts | 25° |
| 2026-04-25 23:33 | 45.12450 | 52.17097 | 35255 ft | 485 kts | 25° |
| 2026-04-25 23:33 | 45.18162 | 52.22064 | 35255 ft | 485 kts | 25° |
| 2026-04-25 23:34 | 45.23914 | 52.27077 | 35250 ft | 485 kts | 25° |
| 2026-04-25 23:34 | 45.29659 | 52.32088 | 35252 ft | 484 kts | 25° |
| 2026-04-25 23:35 | 45.35400 | 52.37098 | 35252 ft | 484 kts | 25° |
| 2026-04-25 23:35 | 45.41135 | 52.42123 | 35249 ft | 484 kts | 25° |
| 2026-04-25 23:36 | 45.46873 | 52.47163 | 35251 ft | 484 kts | 25° |
| 2026-04-25 23:36 | 45.52612 | 52.52220 | 35251 ft | 484 kts | 25° |
| 2026-04-25 23:37 | 45.58332 | 52.57278 | 35250 ft | 484 kts | 25° |
| 2026-04-25 23:37 | 45.64023 | 52.62319 | 35245 ft | 484 kts | 25° |
| 2026-04-25 23:38 | 45.69748 | 52.67395 | 35243 ft | 484 kts | 25° |
| 2026-04-25 23:38 | 45.75473 | 52.72476 | 35242 ft | 484 kts | 25° |
| 2026-04-25 23:39 | 45.81203 | 52.77582 | 35237 ft | 485 kts | 25° |
| 2026-04-25 23:39 | 45.86924 | 52.82706 | 35237 ft | 485 kts | 25° |
| 2026-04-25 23:40 | 45.92643 | 52.87832 | 35236 ft | 485 kts | 25° |
| 2026-04-25 23:40 | 45.98368 | 52.92978 | 35237 ft | 485 kts | 26° |
| 2026-04-25 23:41 | 46.04085 | 52.98133 | 35240 ft | 485 kts | 26° |
| 2026-04-25 23:41 | 46.09802 | 53.03291 | 35237 ft | 485 kts | 26° |
| 2026-04-25 23:42 | 46.15519 | 53.08460 | 35240 ft | 485 kts | 26° |
| 2026-04-25 23:42 | 46.21227 | 53.13638 | 35235 ft | 484 kts | 26° |
| 2026-04-25 23:43 | 46.26927 | 53.18825 | 35238 ft | 484 kts | 26° |
| 2026-04-25 23:43 | 46.32625 | 53.24025 | 35240 ft | 484 kts | 26° |
| 2026-04-25 23:44 | 46.38330 | 53.29227 | 35240 ft | 484 kts | 26° |
| 2026-04-25 23:44 | 46.44026 | 53.34448 | 35239 ft | 485 kts | 26° |
| 2026-04-25 23:45 | 46.49683 | 53.39650 | 35237 ft | 485 kts | 26° |
| 2026-04-25 23:45 | 46.55378 | 53.44894 | 35237 ft | 485 kts | 26° |
| 2026-04-25 23:46 | 46.61074 | 53.50147 | 35236 ft | 485 kts | 26° |
| 2026-04-25 23:46 | 46.66760 | 53.55411 | 35237 ft | 485 kts | 26° |
| 2026-04-25 23:47 | 46.72445 | 53.60688 | 35232 ft | 484 kts | 26° |
| 2026-04-25 23:47 | 46.78126 | 53.65974 | 35228 ft | 484 kts | 26° |
| 2026-04-25 23:48 | 46.83804 | 53.71264 | 35216 ft | 484 kts | 26° |
| 2026-04-25 23:48 | 46.89470 | 53.76565 | 35222 ft | 484 kts | 27° |
| 2026-04-25 23:49 | 46.94183 | 53.80984 | 35213 ft | 484 kts | 27° |
| 2026-04-25 23:49 | 46.99848 | 53.86302 | 35213 ft | 484 kts | 27° |
| 2026-04-25 23:50 | 47.05512 | 53.91629 | 35209 ft | 484 kts | 27° |
| 2026-04-25 23:50 | 47.11175 | 53.96961 | 35205 ft | 483 kts | 27° |
| 2026-04-25 23:51 | 47.16829 | 54.02305 | 35205 ft | 484 kts | 27° |
| 2026-04-25 23:51 | 47.22484 | 54.07677 | 35204 ft | 484 kts | 27° |
| 2026-04-25 23:52 | 47.28099 | 54.13031 | 35204 ft | 484 kts | 27° |
| 2026-04-25 23:52 | 47.33758 | 54.18437 | 35208 ft | 484 kts | 27° |
| 2026-04-25 23:53 | 47.39399 | 54.23836 | 35210 ft | 484 kts | 27° |
| 2026-04-25 23:53 | 47.45056 | 54.29239 | 35206 ft | 483 kts | 27° |
| 2026-04-25 23:54 | 47.50696 | 54.34646 | 35202 ft | 483 kts | 27° |
| 2026-04-25 23:54 | 47.56290 | 54.40049 | 35198 ft | 483 kts | 27° |
| 2026-04-25 23:55 | 47.61913 | 54.45488 | 35196 ft | 482 kts | 28° |
| 2026-04-25 23:55 | 47.67526 | 54.50946 | 35196 ft | 482 kts | 28° |
| 2026-04-25 23:56 | 47.73142 | 54.56403 | 35199 ft | 482 kts | 28° |
| 2026-04-25 23:56 | 47.78746 | 54.61858 | 35195 ft | 482 kts | 28° |
| 2026-04-25 23:57 | 47.84353 | 54.67329 | 35190 ft | 482 kts | 28° |
| 2026-04-25 23:57 | 47.89949 | 54.72817 | 35193 ft | 481 kts | 28° |
| 2026-04-25 23:58 | 47.95534 | 54.78302 | 35181 ft | 481 kts | 28° |
| 2026-04-25 23:58 | 48.01118 | 54.83786 | 35186 ft | 480 kts | 28° |
| 2026-04-25 23:59 | 48.06698 | 54.89274 | 35184 ft | 480 kts | 28° |
| 2026-04-25 23:59 | 48.12232 | 54.94754 | 35181 ft | 480 kts | 28° |
| 2026-04-26 00:00 | 48.17788 | 55.00286 | 35174 ft | 479 kts | 28° |
| 2026-04-26 00:00 | 48.23343 | 55.05806 | 35167 ft | 479 kts | 28° |
| 2026-04-26 00:01 | 48.28896 | 55.11342 | 35169 ft | 479 kts | 28° |
| 2026-04-26 00:01 | 48.34439 | 55.16887 | 35174 ft | 479 kts | 28° |
| 2026-04-26 00:02 | 48.39984 | 55.22445 | 35166 ft | 478 kts | 28° |
| 2026-04-26 00:02 | 48.45514 | 55.27995 | 35170 ft | 478 kts | 28° |
| 2026-04-26 00:03 | 48.51046 | 55.33568 | 35163 ft | 478 kts | 28° |
| 2026-04-26 00:03 | 48.56564 | 55.39143 | 35164 ft | 478 kts | 28° |
| 2026-04-26 00:04 | 48.62081 | 55.44742 | 35157 ft | 477 kts | 28° |
| 2026-04-26 00:04 | 48.67587 | 55.50326 | 35157 ft | 477 kts | 28° |
| 2026-04-26 00:05 | 48.73089 | 55.55925 | 35153 ft | 476 kts | 28° |
| 2026-04-26 00:05 | 48.78583 | 55.61528 | 35151 ft | 476 kts | 28° |
| 2026-04-26 00:06 | 48.84039 | 55.67112 | 35149 ft | 476 kts | 28° |
| 2026-04-26 00:06 | 48.89519 | 55.72741 | 35146 ft | 475 kts | 28° |
| 2026-04-26 00:07 | 48.94993 | 55.78386 | 35143 ft | 475 kts | 29° |
| 2026-04-26 00:07 | 49.00461 | 55.84040 | 35133 ft | 475 kts | 29° |
| 2026-04-26 00:08 | 49.05926 | 55.89709 | 35130 ft | 475 kts | 29° |
| 2026-04-26 00:08 | 49.11390 | 55.95379 | 35126 ft | 475 kts | 29° |
| 2026-04-26 00:09 | 49.16846 | 56.01051 | 35119 ft | 474 kts | 29° |
| 2026-04-26 00:09 | 49.22296 | 56.06738 | 35124 ft | 474 kts | 29° |
| 2026-04-26 00:10 | 49.27747 | 56.12443 | 35112 ft | 474 kts | 29° |
| 2026-04-26 00:10 | 49.33185 | 56.18165 | 35109 ft | 474 kts | 29° |
| 2026-04-26 00:11 | 49.38619 | 56.23894 | 35104 ft | 474 kts | 29° |
| 2026-04-26 00:11 | 49.44014 | 56.29581 | 35101 ft | 473 kts | 29° |
| 2026-04-26 00:12 | 49.49442 | 56.35323 | 35099 ft | 473 kts | 29° |
| 2026-04-26 00:12 | 49.54863 | 56.41081 | 35089 ft | 473 kts | 29° |
| 2026-04-26 00:13 | 49.60284 | 56.46854 | 35088 ft | 474 kts | 30° |
| 2026-04-26 00:13 | 49.65709 | 56.52641 | 35080 ft | 474 kts | 30° |
| 2026-04-26 00:14 | 49.71121 | 56.58429 | 35079 ft | 473 kts | 30° |
| 2026-04-26 00:14 | 49.76540 | 56.64234 | 35074 ft | 473 kts | 30° |
| 2026-04-26 00:15 | 49.81955 | 56.70032 | 35069 ft | 473 kts | 30° |
| 2026-04-26 00:15 | 49.87373 | 56.75843 | 35065 ft | 474 kts | 30° |
| 2026-04-26 00:16 | 49.92753 | 56.81642 | 35064 ft | 474 kts | 30° |
| 2026-04-26 00:16 | 49.98170 | 56.87498 | 35058 ft | 474 kts | 30° |
| 2026-04-26 00:17 | 50.03585 | 56.93367 | 35048 ft | 475 kts | 30° |
| 2026-04-26 00:17 | 50.09002 | 56.99239 | 35037 ft | 475 kts | 30° |
| 2026-04-26 00:18 | 50.14419 | 57.05130 | 35031 ft | 475 kts | 30° |
| 2026-04-26 00:18 | 50.19830 | 57.11044 | 35027 ft | 475 kts | 30° |
| 2026-04-26 00:19 | 50.25281 | 57.16849 | 35021 ft | 471 kts | 24° |
| 2026-04-26 00:19 | 50.31256 | 57.20672 | 35017 ft | 462 kts | 12° |
| 2026-04-26 00:20 | 50.37334 | 57.23737 | 35012 ft | 462 kts | 13° |
| 2026-04-26 00:20 | 50.43453 | 57.26851 | 34994 ft | 462 kts | 13° |
| 2026-04-26 00:21 | 50.49572 | 57.29983 | 35000 ft | 463 kts | 13° |
| 2026-04-26 00:21 | 50.55699 | 57.33127 | 34998 ft | 463 kts | 13° |
| 2026-04-26 00:22 | 50.61825 | 57.36267 | 34994 ft | 463 kts | 13° |
| 2026-04-26 00:22 | 50.67954 | 57.39397 | 34992 ft | 463 kts | 13° |
| 2026-04-26 00:23 | 50.74093 | 57.42551 | 34985 ft | 464 kts | 13° |
| 2026-04-26 00:23 | 50.80233 | 57.45730 | 34985 ft | 464 kts | 13° |
| 2026-04-26 00:24 | 50.86376 | 57.48912 | 34974 ft | 465 kts | 13° |
| 2026-04-26 00:24 | 50.92538 | 57.51986 | 34970 ft | 464 kts | 12° |
| 2026-04-26 00:25 | 50.98738 | 57.54846 | 34963 ft | 464 kts | 11° |
| 2026-04-26 00:25 | 51.04941 | 57.57684 | 34959 ft | 464 kts | 11° |
| 2026-04-26 00:26 | 51.11103 | 57.60557 | 34958 ft | 465 kts | 11° |
| 2026-04-26 00:26 | 51.17312 | 57.63492 | 34956 ft | 466 kts | 12° |
| 2026-04-26 00:27 | 51.23529 | 57.66439 | 34953 ft | 466 kts | 12° |
| 2026-04-26 00:27 | 51.29749 | 57.69402 | 34954 ft | 467 kts | 12° |
| 2026-04-26 00:28 | 51.35969 | 57.72369 | 34951 ft | 467 kts | 12° |
| 2026-04-26 00:28 | 51.42193 | 57.75351 | 34947 ft | 467 kts | 12° |
| 2026-04-26 00:29 | 51.48420 | 57.78348 | 34947 ft | 467 kts | 12° |
| 2026-04-26 00:29 | 51.54650 | 57.81346 | 34942 ft | 468 kts | 12° |
| 2026-04-26 00:30 | 51.60890 | 57.84352 | 34933 ft | 468 kts | 12° |
| 2026-04-26 00:30 | 51.67124 | 57.87369 | 34929 ft | 468 kts | 12° |
| 2026-04-26 00:31 | 51.73351 | 57.90392 | 34921 ft | 467 kts | 12° |
| 2026-04-26 00:31 | 51.79579 | 57.93432 | 34917 ft | 468 kts | 12° |
| 2026-04-26 00:32 | 51.85776 | 57.96454 | 34912 ft | 468 kts | 12° |
| 2026-04-26 00:32 | 51.95120 | 58.01023 | 34903 ft | 468 kts | 12° |
| 2026-04-26 00:33 | 52.01358 | 58.04091 | 34900 ft | 468 kts | 12° |
| 2026-04-26 00:33 | 52.07595 | 58.07160 | 34892 ft | 468 kts | 12° |
| 2026-04-26 00:34 | 52.13832 | 58.10243 | 34890 ft | 469 kts | 12° |
| 2026-04-26 00:34 | 52.20077 | 58.13344 | 34886 ft | 469 kts | 12° |
| 2026-04-26 00:35 | 52.26321 | 58.16464 | 34880 ft | 470 kts | 12° |
| 2026-04-26 00:35 | 52.32573 | 58.19585 | 34879 ft | 470 kts | 12° |
| 2026-04-26 00:36 | 52.38822 | 58.22700 | 34874 ft | 470 kts | 12° |
| 2026-04-26 00:36 | 52.45076 | 58.25838 | 34869 ft | 470 kts | 12° |
| 2026-04-26 00:37 | 52.51332 | 58.28982 | 34862 ft | 470 kts | 12° |
| 2026-04-26 00:37 | 52.57589 | 58.32129 | 34859 ft | 470 kts | 13° |
| 2026-04-26 00:38 | 52.63835 | 58.35328 | 34851 ft | 471 kts | 13° |
| 2026-04-26 00:38 | 52.70048 | 58.38572 | 34854 ft | 471 kts | 13° |
| 2026-04-26 00:39 | 52.76301 | 58.41839 | 34843 ft | 471 kts | 13° |
| 2026-04-26 00:39 | 52.81538 | 58.44576 | 34839 ft | 471 kts | 13° |
| 2026-04-26 00:40 | 52.88813 | 58.48372 | 34834 ft | 472 kts | 13° |
| 2026-04-26 00:40 | 52.94017 | 58.51108 | 34825 ft | 472 kts | 13° |
| 2026-04-26 00:41 | 53.00279 | 58.54409 | 34819 ft | 472 kts | 13° |
| 2026-04-26 00:41 | 53.06539 | 58.57710 | 34820 ft | 472 kts | 13° |
| 2026-04-26 00:42 | 53.12805 | 58.61007 | 34819 ft | 472 kts | 13° |
| 2026-04-26 00:42 | 53.19066 | 58.64323 | 34806 ft | 472 kts | 13° |
| 2026-04-26 00:43 | 53.25327 | 58.67674 | 34807 ft | 472 kts | 14° |
| 2026-04-26 00:43 | 53.31589 | 58.71031 | 34807 ft | 473 kts | 14° |
| 2026-04-26 00:44 | 53.37860 | 58.74387 | 34807 ft | 473 kts | 14° |
| 2026-04-26 00:44 | 53.44140 | 58.77687 | 34806 ft | 472 kts | 13° |
| 2026-04-26 00:45 | 53.50449 | 58.80776 | 34803 ft | 472 kts | 12° |
| 2026-04-26 00:45 | 53.56762 | 58.83831 | 34796 ft | 473 kts | 12° |
| 2026-04-26 00:46 | 53.63032 | 58.86920 | 34787 ft | 473 kts | 13° |
| 2026-04-26 00:46 | 53.69348 | 58.90084 | 34778 ft | 473 kts | 13° |
| 2026-04-26 00:47 | 53.75666 | 58.93245 | 34775 ft | 474 kts | 13° |
| 2026-04-26 00:47 | 53.81993 | 58.96410 | 34772 ft | 474 kts | 13° |
| 2026-04-26 00:48 | 53.88323 | 58.99593 | 34774 ft | 475 kts | 13° |
| 2026-04-26 00:48 | 53.94662 | 59.02792 | 34778 ft | 475 kts | 13° |
| 2026-04-26 00:49 | 54.01002 | 59.06004 | 34778 ft | 476 kts | 13° |
| 2026-04-26 00:49 | 54.07352 | 59.09260 | 34778 ft | 476 kts | 13° |
| 2026-04-26 00:50 | 54.13694 | 59.12573 | 34778 ft | 477 kts | 13° |
| 2026-04-26 00:50 | 54.19997 | 59.15896 | 34778 ft | 477 kts | 13° |
| 2026-04-26 00:51 | 54.26344 | 59.19233 | 34777 ft | 477 kts | 13° |
| 2026-04-26 00:51 | 54.32692 | 59.22569 | 34775 ft | 477 kts | 13° |
| 2026-04-26 00:52 | 54.39042 | 59.25902 | 34765 ft | 477 kts | 13° |
| 2026-04-26 00:52 | 54.45391 | 59.29261 | 34763 ft | 478 kts | 13° |
| 2026-04-26 00:53 | 54.51747 | 59.32649 | 34763 ft | 478 kts | 14° |
| 2026-04-26 00:53 | 54.58103 | 59.36045 | 34761 ft | 479 kts | 14° |
| 2026-04-26 00:54 | 54.64468 | 59.39444 | 34764 ft | 479 kts | 14° |
| 2026-04-26 00:54 | 54.70840 | 59.42860 | 34767 ft | 479 kts | 14° |
| 2026-04-26 00:55 | 54.77219 | 59.46261 | 34767 ft | 480 kts | 13° |
| 2026-04-26 00:55 | 54.83609 | 59.49609 | 34762 ft | 480 kts | 13° |
| 2026-04-26 00:56 | 54.89969 | 59.52945 | 34767 ft | 481 kts | 13° |
| 2026-04-26 00:56 | 54.96367 | 59.56333 | 34767 ft | 481 kts | 13° |
| 2026-04-26 00:57 | 55.02768 | 59.59733 | 34769 ft | 481 kts | 13° |
| 2026-04-26 00:57 | 55.09167 | 59.63147 | 34769 ft | 481 kts | 14° |
| 2026-04-26 00:58 | 55.15574 | 59.66587 | 34769 ft | 482 kts | 14° |
| 2026-04-26 00:58 | 55.21988 | 59.70018 | 34765 ft | 482 kts | 12° |
| 2026-04-26 00:59 | 55.28473 | 59.72800 | 34762 ft | 480 kts | 8° |
| 2026-04-26 00:59 | 55.35033 | 59.75065 | 34765 ft | 480 kts | 7° |
| 2026-04-26 01:00 | 55.41586 | 59.77391 | 34208 ft | 482 kts | 9° |
| 2026-04-26 01:00 | 55.44885 | 59.78680 | 32940 ft | 492 kts | 9° |
| 2026-04-26 01:00 | 55.48235 | 59.80074 | 31892 ft | 494 kts | 10° |
| 2026-04-26 01:01 | 55.51566 | 59.81500 | 30841 ft | 490 kts | 10° |
| 2026-04-26 01:01 | 55.54839 | 59.82906 | 29817 ft | 485 kts | 10° |
| 2026-04-26 01:01 | 55.58146 | 59.84308 | 28559 ft | 487 kts | 10° |
| 2026-04-26 01:01 | 55.61435 | 59.85678 | 27454 ft | 485 kts | 10° |
| 2026-04-26 01:02 | 55.64720 | 59.87030 | 26369 ft | 484 kts | 10° |
| 2026-04-26 01:02 | 55.67962 | 59.88358 | 25754 ft | 473 kts | 10° |
| 2026-04-26 01:02 | 55.71104 | 59.89650 | 24990 ft | 467 kts | 10° |
| 2026-04-26 01:02 | 55.74246 | 59.90943 | 24255 ft | 460 kts | 10° |
| 2026-04-26 01:03 | 55.77349 | 59.92224 | 23514 ft | 455 kts | 10° |
| 2026-04-26 01:03 | 55.80416 | 59.93494 | 22748 ft | 450 kts | 10° |
| 2026-04-26 01:03 | 55.83445 | 59.94755 | 22098 ft | 442 kts | 10° |
| 2026-04-26 01:03 | 55.86418 | 59.96000 | 21440 ft | 436 kts | 10° |
| 2026-04-26 01:04 | 55.89351 | 59.97232 | 20823 ft | 431 kts | 10° |
| 2026-04-26 01:04 | 55.92220 | 59.98701 | 20216 ft | 428 kts | 18° |
| 2026-04-26 01:04 | 55.94947 | 60.00771 | 19613 ft | 425 kts | 22° |
| 2026-04-26 01:04 | 55.97524 | 60.03419 | 18619 ft | 434 kts | 37° |
| 2026-04-26 01:05 | 55.99587 | 60.07330 | 18064 ft | 431 kts | 54° |
| 2026-04-26 01:05 | 56.01150 | 60.11870 | 17449 ft | 427 kts | 59° |
| 2026-04-26 01:05 | 56.02643 | 60.16400 | 16912 ft | 421 kts | 59° |
| 2026-04-26 01:05 | 56.04110 | 60.20902 | 16375 ft | 416 kts | 59° |
| 2026-04-26 01:06 | 56.05550 | 60.25350 | 15850 ft | 411 kts | 59° |
| 2026-04-26 01:06 | 56.06971 | 60.29764 | 15312 ft | 407 kts | 59° |
| 2026-04-26 01:06 | 56.08375 | 60.34141 | 14765 ft | 404 kts | 59° |
| 2026-04-26 01:06 | 56.09770 | 60.38481 | 14215 ft | 401 kts | 59° |
| 2026-04-26 01:07 | 56.11155 | 60.42793 | 13657 ft | 398 kts | 59° |
| 2026-04-26 01:07 | 56.12533 | 60.47085 | 13021 ft | 396 kts | 59° |
| 2026-04-26 01:07 | 56.13897 | 60.51342 | 12428 ft | 391 kts | 59° |
| 2026-04-26 01:07 | 56.15246 | 60.55557 | 11819 ft | 388 kts | 59° |
| 2026-04-26 01:08 | 56.16581 | 60.59739 | 11198 ft | 385 kts | 59° |
| 2026-04-26 01:08 | 56.17906 | 60.63891 | 10628 ft | 381 kts | 59° |
| 2026-04-26 01:08 | 56.19195 | 60.67931 | 10476 ft | 365 kts | 59° |
| 2026-04-26 01:08 | 56.20426 | 60.71796 | 10332 ft | 350 kts | 59° |
| 2026-04-26 01:09 | 56.21608 | 60.75523 | 10212 ft | 336 kts | 59° |
| 2026-04-26 01:09 | 56.22742 | 60.79110 | 10066 ft | 324 kts | 59° |
| 2026-04-26 01:09 | 56.23835 | 60.82566 | 9949 ft | 313 kts | 59° |
| 2026-04-26 01:09 | 56.24894 | 60.85918 | 9727 ft | 306 kts | 59° |
| 2026-04-26 01:10 | 56.25922 | 60.89172 | 9616 ft | 302 kts | 59° |
| 2026-04-26 01:10 | 56.26963 | 60.92467 | 9334 ft | 305 kts | 59° |
| 2026-04-26 01:10 | 56.28009 | 60.95788 | 8932 ft | 303 kts | 59° |
| 2026-04-26 01:10 | 56.29039 | 60.99065 | 8501 ft | 299 kts | 59° |
| 2026-04-26 01:11 | 56.30058 | 61.02309 | 7778 ft | 297 kts | 59° |
| 2026-04-26 01:11 | 56.31067 | 61.05531 | 7137 ft | 293 kts | 59° |
| 2026-04-26 01:11 | 56.32058 | 61.08698 | 6809 ft | 285 kts | 59° |
| 2026-04-26 01:11 | 56.33033 | 61.11724 | 6676 ft | 273 kts | 53° |
| 2026-04-26 01:12 | 56.34342 | 61.14034 | 6542 ft | 257 kts | 29° |
| 2026-04-26 01:12 | 56.35944 | 61.15241 | 6414 ft | 246 kts | 7° |
| 2026-04-26 01:12 | 56.37617 | 61.15348 | 6289 ft | 239 kts | 349° |
| 2026-04-26 01:12 | 56.39276 | 61.15023 | 6165 ft | 240 kts | 350° |
| 2026-04-26 01:13 | 56.40936 | 61.14708 | 6034 ft | 239 kts | 350° |
| 2026-04-26 01:13 | 56.42592 | 61.14400 | 5902 ft | 239 kts | 350° |
| 2026-04-26 01:13 | 56.44245 | 61.14096 | 5769 ft | 238 kts | 350° |
| 2026-04-26 01:13 | 56.45893 | 61.13793 | 5634 ft | 238 kts | 350° |
| 2026-04-26 01:14 | 56.47538 | 61.13490 | 5495 ft | 238 kts | 350° |
| 2026-04-26 01:14 | 56.49160 | 61.13193 | 5365 ft | 237 kts | 350° |
| 2026-04-26 01:14 | 56.50801 | 61.12892 | 5227 ft | 236 kts | 350° |
| 2026-04-26 01:14 | 56.52433 | 61.12588 | 5098 ft | 236 kts | 350° |
| 2026-04-26 01:15 | 56.54077 | 61.12456 | 4967 ft | 237 kts | 356° |
| 2026-04-26 01:15 | 56.55726 | 61.12477 | 4832 ft | 237 kts | 356° |
| 2026-04-26 01:15 | 56.57368 | 61.12492 | 4702 ft | 236 kts | 356° |
| 2026-04-26 01:15 | 56.59011 | 61.12500 | 4572 ft | 236 kts | 356° |
| 2026-04-26 01:16 | 56.60647 | 61.12508 | 4439 ft | 235 kts | 355° |
| 2026-04-26 01:16 | 56.62280 | 61.12515 | 4311 ft | 235 kts | 355° |
| 2026-04-26 01:16 | 56.63913 | 61.12522 | 4170 ft | 234 kts | 355° |
| 2026-04-26 01:16 | 56.65513 | 61.12219 | 4042 ft | 230 kts | 346° |
| 2026-04-26 01:17 | 56.67096 | 61.11760 | 3879 ft | 229 kts | 346° |
| 2026-04-26 01:17 | 56.68671 | 61.11306 | 3719 ft | 230 kts | 346° |
| 2026-04-26 01:17 | 56.70217 | 61.10866 | 3642 ft | 222 kts | 345° |
| 2026-04-26 01:17 | 56.71748 | 61.10430 | 3591 ft | 222 kts | 345° |
| 2026-04-26 01:18 | 56.73193 | 61.09626 | 3531 ft | 213 kts | 321° |
| 2026-04-26 01:18 | 56.74149 | 61.07705 | 3393 ft | 204 kts | 290° |
| 2026-04-26 01:18 | 56.74400 | 61.05245 | 3168 ft | 197 kts | 269° |
| 2026-04-26 01:18 | 56.74407 | 61.02754 | 2953 ft | 197 kts | 269° |
| 2026-04-26 01:19 | 56.74414 | 61.00297 | 2838 ft | 187 kts | 269° |
| 2026-04-26 01:19 | 56.74422 | 60.98003 | 2623 ft | 177 kts | 269° |
| 2026-04-26 01:19 | 56.74430 | 60.95812 | 2421 ft | 166 kts | 268° |
| 2026-04-26 01:19 | 56.74438 | 60.93818 | 2156 ft | 148 kts | 267° |
| 2026-04-26 01:20 | 56.74445 | 60.92026 | 1973 ft | 138 kts | 266° |
| 2026-04-26 01:20 | 56.74451 | 60.90331 | 1765 ft | 135 kts | 266° |
| 2026-04-26 01:20 | 56.74456 | 60.88601 | 1499 ft | 134 kts | 266° |
| 2026-04-26 01:20 | 56.74460 | 60.86929 | 1316 ft | 134 kts | 266° |
| 2026-04-26 01:21 | 56.74463 | 60.85230 | 1124 ft | 136 kts | 267° |
| 2026-04-26 01:21 | 56.74462 | 60.83506 | 950 ft | 136 kts | 268° |
| 2026-04-26 01:21 | 56.74469 | 60.81779 | 802 ft | 132 kts | 268° |
| 2026-04-26 01:21 | 56.74473 | 60.80293 | 778 ft | 96 kts | 270° |
| 2026-04-26 01:22 | 56.74476 | 60.79378 | 772 ft | 38 kts | 270° |
| 2026-04-26 01:22 | 56.74516 | 60.79205 | 772 ft | 13 kts | 328° |
| 2026-04-26 01:22 | 56.74574 | 60.79188 | 775 ft | 4 kts | 0° |
| 2026-04-26 01:22 | 56.74592 | 60.79188 | 776 ft | 3 kts | 0° |
| 2026-04-26 01:23 | 56.74594 | 60.79188 | 776 ft | 0 kts | 0° |
| 2026-04-26 01:23 | 56.74597 | 60.79188 | 776 ft | 3 kts | 0° |
| 2026-04-26 01:24 | 56.74659 | 60.79188 | 776 ft | 13 kts | 360° |
| 2026-04-26 01:24 | 56.74743 | 60.79187 | 776 ft | 11 kts | 360° |
| 2026-04-26 01:24 | 56.74816 | 60.79187 | 777 ft | 10 kts | 360° |
| 2026-04-26 01:24 | 56.74859 | 60.79231 | 777 ft | 6 kts | 73° |
| 2026-04-26 01:25 | 56.74858 | 60.79305 | 777 ft | 5 kts | 91° |
| 2026-04-26 01:25 | 56.74858 | 60.79427 | 777 ft | 14 kts | 90° |
| 2026-04-26 01:25 | 56.74857 | 60.79593 | 777 ft | 12 kts | 89° |
| 2026-04-26 01:25 | 56.74857 | 60.79739 | 777 ft | 11 kts | 91° |
| 2026-04-26 01:26 | 56.74854 | 60.79849 | 777 ft | 7 kts | 92° |
| 2026-04-26 01:26 | 56.74853 | 60.79902 | 777 ft | 6 kts | 92° |
| 2026-04-26 01:26 | 56.74867 | 60.79942 | 777 ft | 3 kts | 28° |
| 2026-04-26 01:26 | 56.74887 | 60.79946 | 777 ft | 2 kts | 2° |
| 2026-04-26 01:27 | 56.74904 | 60.79946 | 777 ft | 4 kts | 359° |
| 2026-04-26 01:27 | 56.74935 | 60.79944 | 777 ft | 0 kts | 358° |